Overview Statistics Trail Chart Weather Telemetry Raw packets
 

This is the latest recevied weather packets stored in our database for station/object KD4EG. If no packets are shown the sender has not sent any weather packets the latest 10 day(s).

<< 80 81 82 83 84 85 86 >>
Time Temp. Humidity Pressure Rain* Wind** Luminosity Snow
1788041487 27.78° C 65% 1023.9 hPa 0 mm - 55 W/m² -
1788041182 28.33° C 64% 1023.7 hPa 0 mm - 51 W/m² -
1788040881 28.33° C 64% 1023.8 hPa 0 mm - 55 W/m² -
1788040580 28.33° C 64% 1023.8 hPa 0 mm - 83 W/m² -
1788040276 28.33° C 65% 1024 hPa 0 mm - 120 W/m² -
1788039975 28.89° C 63% 1023.8 hPa 0 mm - 84 W/m² -
1788039670 29.44° C 62% 1023.8 hPa 0 mm - 264 W/m² -
1788039365 28.33° C 65% 1023.8 hPa 0 mm - 279 W/m² -
1788039061 28.33° C 66% 1023.9 hPa 0 mm - 78 W/m² -
1788038756 28.33° C 64% 1023.8 hPa 0 mm - 67 W/m² -
1788038451 28.33° C 65% 1024.1 hPa 0 mm - 88 W/m² -
1788038150 28.33° C 64% 1024 hPa 0 mm - 75 W/m² -
1788037850 28.33° C 65% 1023.9 hPa 0 mm - 69 W/m² -
1788037545 28.89° C 64% 1023.8 hPa 0 mm - 95 W/m² -
1788037240 28.33° C 65% 1023.8 hPa 0 mm - 78 W/m² -
1788036939 28.89° C 64% 1023.9 hPa 0 mm - 92 W/m² -
1788036637 28.33° C 63% 1023.6 hPa 0 mm - 87 W/m² -
1788036331 28.89° C 63% 1023.6 hPa 0 mm - 92 W/m² -
1788036026 28.33° C 64% 1024.1 hPa 0 mm - 181 W/m² -
1788035726 28.33° C 64% 1023.9 hPa 0 mm - 95 W/m² -
1788035421 28.89° C 63% 1023.9 hPa 0 mm - 132 W/m² -
1788035116 29.44° C 62% 1024.1 hPa 0 mm - 158 W/m² -
1788034813 29.44° C 61% 1024.2 hPa 0 mm - 148 W/m² -
1788034513 30° C 59% 1024.2 hPa 0 mm - 511 W/m² -
1788034205 29.44° C 61% 1024.4 hPa 0 mm - 543 W/m² -

* Rain latest hour (hover to see other rain measurements)
** Current wind speed in m/s (hover to see current wind gust speed)